Startpagina
METAR-TAF:

METAR-TAF

Vliegvelden :

Vientiane, Laos

breedte: 17-57N, lengte: 102-34E, hoogte: 171 m

Actueel weer

Dit bericht is 32 minuten geleden gemaakt, om 01:30 UTC
Wind 2 kt uit het noordnoordwesten
Temperatuur 27°C
Vochtigheid 89%
Druk 1010 hPa
Zicht: 7000 m
Gebroken wolken op 1600 ft
Verspreide wolken op 4000 ft

METAR: VLVT 260130Z 34002KT 7000 BKN016 SCT040 27/25 Q1010 NOSIG

Tijdstip: 09:02 (02:02 UTC)

Verwachting

Dit bericht is 15 uur en het 2 minuten geleden gemaakt, om 11:00 UTC
Verwachting geldig van 25 om 12 UTC tot 26 om 12 UTC
Wind 8 kt uit het zuidoosten
Zicht: 7000 m
Verspreide wolken op 2000 ft
Verspreide wolken op 5000 ft
Gebroken wolken op 8300 ft
lichte regen
Tijdelijke
van 25 om 15 UTC tot 25 om 18 UTC
Wind 8 kt uit het oostzuidoosten
Zicht: 3000 m
Verspreide wolken op 2000 ft
Verspreide wolken op 4000 ft
Gebroken wolken op 8300 ft
regen

TAF: VLVT 251100Z 2512/2612 14008KT 7000 -RA SCT020 SCT050 BKN083 TEMPO 2515/2518 12008KT 3000 RA SCT020 SCT040 BKN083

Waarnemingen en weersverwachtingen van meer dan 4000 vliegvelden (METAR en TAF).

De beschikbare stations zijn de gele en rode punten op de kaart.

Ga met uw muis naar het station om de naam te zien.

Klik dan om waarnemingen en weersverwachtingen te zien.

kaart wijzigen: klik op de groene knoppen met een zwart kruis om in te zoomen, op de groene knop met een streepje om uit te zoomen of op de groene pijlen voor aangrenzende kaarten.


METAR-TAF: